Terminal Aerodrome Forecast
Issued by NWS

Home | Current Version | Previous Version | Text Only | Print | Product List | Glossary On
Versions: 1 2 3 4 5 6 7 8 9 10 11 12 13 14 15 16 17
000
FTUS41 KPBZ 170540
TAFMGW
TAF
KMGW 170540Z 1706/1806 18004KT P6SM BKN100
     FM172100 19005KT P6SM VCTS BKN035CB
     FM180500 22005KT 3SM -SHRA BR OVC035=

USA.gov is the U.S. government's official web portal to all federal, state and local government web resources and services.